sensor_id;sensor_type;location;lat;lon;timestamp;P1;durP1;ratioP1;P2;durP2;ratioP2
15183;SDS011;7693;49.266;7.104;2022-10-01T04:45:54;4.13;;;3.97;;
15183;SDS011;7693;49.266;7.104;2022-10-01T04:48:19;4.20;;;4.00;;
15183;SDS011;7693;49.266;7.104;2022-10-01T04:50:45;7.13;;;4.20;;
15183;SDS011;7693;49.266;7.104;2022-10-01T04:53:11;7.50;;;4.20;;
15183;SDS011;7693;49.266;7.104;2022-10-01T04:55:36;4.00;;;3.63;;
15183;SDS011;7693;49.266;7.104;2022-10-01T04:58:02;5.27;;;4.83;;
15183;SDS011;7693;49.266;7.104;2022-10-01T05:00:27;4.40;;;3.83;;
15183;SDS011;7693;49.266;7.104;2022-10-01T05:02:54;4.17;;;3.87;;
15183;SDS011;7693;49.266;7.104;2022-10-01T05:05:20;3.90;;;3.70;;
15183;SDS011;7693;49.266;7.104;2022-10-01T05:07:47;4.03;;;3.83;;
15183;SDS011;7693;49.266;7.104;2022-10-01T05:10:14;3.83;;;3.60;;
15183;SDS011;7693;49.266;7.104;2022-10-01T05:12:42;4.10;;;3.90;;
15183;SDS011;7693;49.266;7.104;2022-10-01T05:15:08;3.50;;;3.40;;
15183;SDS011;7693;49.266;7.104;2022-10-01T05:17:34;4.60;;;4.10;;
15183;SDS011;7693;49.266;7.104;2022-10-01T05:20:00;3.80;;;3.60;;
15183;SDS011;7693;49.266;7.104;2022-10-01T05:22:27;4.10;;;3.90;;
15183;SDS011;7693;49.266;7.104;2022-10-01T05:24:52;3.83;;;3.63;;
15183;SDS011;7693;49.266;7.104;2022-10-01T05:27:18;4.17;;;3.80;;
15183;SDS011;7693;49.266;7.104;2022-10-01T05:29:44;3.97;;;3.77;;
15183;SDS011;7693;49.266;7.104;2022-10-01T05:32:11;3.73;;;3.50;;
15183;SDS011;7693;49.266;7.104;2022-10-01T05:34:37;3.90;;;3.70;;
15183;SDS011;7693;49.266;7.104;2022-10-01T05:37:03;3.80;;;3.60;;
15183;SDS011;7693;49.266;7.104;2022-10-01T05:39:30;3.80;;;3.60;;
15183;SDS011;7693;49.266;7.104;2022-10-01T05:41:56;3.97;;;3.77;;
15183;SDS011;7693;49.266;7.104;2022-10-01T05:44:23;6.17;;;3.60;;
15183;SDS011;7693;49.266;7.104;2022-10-01T05:46:49;3.87;;;3.73;;
15183;SDS011;7693;49.266;7.104;2022-10-01T05:49:16;5.73;;;5.30;;
15183;SDS011;7693;49.266;7.104;2022-10-01T05:51:42;4.93;;;4.43;;
15183;SDS011;7693;49.266;7.104;2022-10-01T05:54:09;4.83;;;3.53;;
15183;SDS011;7693;49.266;7.104;2022-10-01T05:56:35;3.53;;;3.43;;
15183;SDS011;7693;49.266;7.104;2022-10-01T05:59:01;3.90;;;3.60;;
15183;SDS011;7693;49.266;7.104;2022-10-01T06:01:27;3.40;;;3.30;;
15183;SDS011;7693;49.266;7.104;2022-10-01T06:03:53;3.83;;;3.63;;
15183;SDS011;7693;49.266;7.104;2022-10-01T06:06:19;4.90;;;4.63;;
15183;SDS011;7693;49.266;7.104;2022-10-01T06:08:46;4.03;;;3.73;;
15183;SDS011;7693;49.266;7.104;2022-10-01T06:11:12;4.03;;;3.83;;
15183;SDS011;7693;49.266;7.104;2022-10-01T06:13:37;4.10;;;3.90;;
15183;SDS011;7693;49.266;7.104;2022-10-01T06:16:04;3.43;;;3.33;;
15183;SDS011;7693;49.266;7.104;2022-10-01T06:18:29;4.00;;;3.73;;
15183;SDS011;7693;49.266;7.104;2022-10-01T06:20:56;4.23;;;3.93;;
15183;SDS011;7693;49.266;7.104;2022-10-01T06:23:23;3.80;;;3.60;;
15183;SDS011;7693;49.266;7.104;2022-10-01T06:25:48;3.33;;;3.23;;
15183;SDS011;7693;49.266;7.104;2022-10-01T06:28:14;4.00;;;3.57;;
15183;SDS011;7693;49.266;7.104;2022-10-01T06:30:39;3.70;;;3.50;;
15183;SDS011;7693;49.266;7.104;2022-10-01T06:33:10;3.40;;;3.20;;
15183;SDS011;7693;49.266;7.104;2022-10-01T06:35:41;3.93;;;3.60;;
15183;SDS011;7693;49.266;7.104;2022-10-01T06:38:08;3.20;;;3.10;;
15183;SDS011;7693;49.266;7.104;2022-10-01T06:40:34;3.30;;;3.10;;
15183;SDS011;7693;49.266;7.104;2022-10-01T06:43:00;3.03;;;2.93;;
15183;SDS011;7693;49.266;7.104;2022-10-01T06:45:27;2.90;;;2.70;;
15183;SDS011;7693;49.266;7.104;2022-10-01T06:47:54;4.10;;;3.00;;
15183;SDS011;7693;49.266;7.104;2022-10-01T06:50:20;3.07;;;2.97;;
15183;SDS011;7693;49.266;7.104;2022-10-01T06:52:46;3.37;;;3.27;;
15183;SDS011;7693;49.266;7.104;2022-10-01T06:55:15;3.00;;;2.90;;
15183;SDS011;7693;49.266;7.104;2022-10-01T06:57:42;3.13;;;3.03;;
15183;SDS011;7693;49.266;7.104;2022-10-01T07:00:09;3.50;;;3.20;;
15183;SDS011;7693;49.266;7.104;2022-10-01T07:02:35;3.30;;;3.10;;
15183;SDS011;7693;49.266;7.104;2022-10-01T07:05:01;3.07;;;2.93;;
15183;SDS011;7693;49.266;7.104;2022-10-01T07:07:27;3.00;;;2.90;;
15183;SDS011;7693;49.266;7.104;2022-10-01T07:09:54;4.10;;;3.90;;
15183;SDS011;7693;49.266;7.104;2022-10-01T07:12:20;3.90;;;2.97;;
15183;SDS011;7693;49.266;7.104;2022-10-01T07:14:45;3.00;;;2.80;;
15183;SDS011;7693;49.266;7.104;2022-10-01T07:17:11;3.27;;;3.17;;
15183;SDS011;7693;49.266;7.104;2022-10-01T07:19:36;3.50;;;2.37;;
15183;SDS011;7693;49.266;7.104;2022-10-01T07:22:02;2.83;;;2.63;;
15183;SDS011;7693;49.266;7.104;2022-10-01T07:24:27;3.53;;;3.33;;
15183;SDS011;7693;49.266;7.104;2022-10-01T07:26:53;2.37;;;2.37;;
15183;SDS011;7693;49.266;7.104;2022-10-01T12:04:39;3.07;;;2.77;;
15183;SDS011;7693;49.266;7.104;2022-10-01T12:07:12;2.50;;;2.50;;
15183;SDS011;7693;49.266;7.104;2022-10-01T12:12:24;2.63;;;2.53;;
15183;SDS011;7693;49.266;7.104;2022-10-01T12:15:19;2.10;;;2.10;;
15183;SDS011;7693;49.266;7.104;2022-10-01T12:18:08;1.90;;;1.80;;
15183;SDS011;7693;49.266;7.104;2022-10-01T12:20:48;2.10;;;2.10;;
15183;SDS011;7693;49.266;7.104;2022-10-01T12:23:17;1.90;;;1.80;;
15183;SDS011;7693;49.266;7.104;2022-10-01T12:25:48;1.60;;;1.60;;
15183;SDS011;7693;49.266;7.104;2022-10-01T12:28:56;2.00;;;1.90;;
15183;SDS011;7693;49.266;7.104;2022-10-01T12:37:55;3.33;;;3.03;;
15183;SDS011;7693;49.266;7.104;2022-10-01T12:43:31;6.00;;;5.60;;
15183;SDS011;7693;49.266;7.104;2022-10-01T12:46:32;4.20;;;4.00;;
15183;SDS011;7693;49.266;7.104;2022-10-01T13:31:15;6.97;;;6.23;;
15183;SDS011;7693;49.266;7.104;2022-10-01T14:40:21;1.93;;;1.83;;
15183;SDS011;7693;49.266;7.104;2022-10-01T14:42:59;2.63;;;2.33;;
15183;SDS011;7693;49.266;7.104;2022-10-01T14:45:27;3.50;;;3.30;;
15183;SDS011;7693;49.266;7.104;2022-10-01T14:48:00;5.47;;;2.50;;
15183;SDS011;7693;49.266;7.104;2022-10-01T14:50:27;2.07;;;1.97;;
15183;SDS011;7693;49.266;7.104;2022-10-01T14:52:56;5.53;;;2.33;;
15183;SDS011;7693;49.266;7.104;2022-10-01T14:55:23;3.03;;;2.37;;
15183;SDS011;7693;49.266;7.104;2022-10-01T14:57:51;2.63;;;2.13;;
15183;SDS011;7693;49.266;7.104;2022-10-01T15:00:20;1.90;;;1.80;;
15183;SDS011;7693;49.266;7.104;2022-10-01T15:02:48;2.20;;;2.00;;
15183;SDS011;7693;49.266;7.104;2022-10-01T15:05:27;1.60;;;1.60;;
15183;SDS011;7693;49.266;7.104;2022-10-01T15:07:54;3.03;;;2.00;;
15183;SDS011;7693;49.266;7.104;2022-10-01T15:10:21;2.20;;;2.00;;
15183;SDS011;7693;49.266;7.104;2022-10-01T15:12:50;3.13;;;2.10;;
15183;SDS011;7693;49.266;7.104;2022-10-01T15:15:22;3.00;;;2.03;;
15183;SDS011;7693;49.266;7.104;2022-10-01T15:17:52;2.37;;;1.80;;
15183;SDS011;7693;49.266;7.104;2022-10-01T15:20:18;1.90;;;1.80;;
15183;SDS011;7693;49.266;7.104;2022-10-01T15:22:45;2.10;;;1.90;;
15183;SDS011;7693;49.266;7.104;2022-10-01T15:25:19;1.83;;;1.73;;
15183;SDS011;7693;49.266;7.104;2022-10-01T15:27:49;2.30;;;2.00;;
15183;SDS011;7693;49.266;7.104;2022-10-01T15:30:17;2.60;;;2.23;;
15183;SDS011;7693;49.266;7.104;2022-10-01T15:32:45;8.33;;;5.83;;
15183;SDS011;7693;49.266;7.104;2022-10-01T15:35:12;6.13;;;4.57;;
15183;SDS011;7693;49.266;7.104;2022-10-01T15:37:41;6.13;;;5.50;;
15183;SDS011;7693;49.266;7.104;2022-10-01T15:40:22;6.20;;;4.77;;
15183;SDS011;7693;49.266;7.104;2022-10-01T15:45:33;12.60;;;9.47;;
15183;SDS011;7693;49.266;7.104;2022-10-01T15:47:59;4.47;;;4.07;;
15183;SDS011;7693;49.266;7.104;2022-10-01T15:55:40;3.53;;;3.30;;
15183;SDS011;7693;49.266;7.104;2022-10-01T15:58:14;2.40;;;1.70;;
15183;SDS011;7693;49.266;7.104;2022-10-01T17:57:18;14.37;;;5.40;;
15183;SDS011;7693;49.266;7.104;2022-10-01T17:59:43;8.43;;;4.00;;
15183;SDS011;7693;49.266;7.104;2022-10-01T18:02:09;14.50;;;5.20;;
15183;SDS011;7693;49.266;7.104;2022-10-01T18:04:36;9.40;;;3.80;;
15183;SDS011;7693;49.266;7.104;2022-10-01T18:07:07;9.03;;;4.30;;
15183;SDS011;7693;49.266;7.104;2022-10-01T18:09:36;7.17;;;3.53;;
15183;SDS011;7693;49.266;7.104;2022-10-01T18:12:04;7.83;;;3.70;;
15183;SDS011;7693;49.266;7.104;2022-10-01T18:14:29;7.07;;;3.33;;
15183;SDS011;7693;49.266;7.104;2022-10-01T18:16:55;7.57;;;3.60;;
15183;SDS011;7693;49.266;7.104;2022-10-01T18:19:21;11.63;;;3.87;;
15183;SDS011;7693;49.266;7.104;2022-10-01T18:21:46;10.07;;;4.67;;
15183;SDS011;7693;49.266;7.104;2022-10-01T18:24:13;9.40;;;4.50;;
15183;SDS011;7693;49.266;7.104;2022-10-01T18:26:39;14.93;;;4.93;;
15183;SDS011;7693;49.266;7.104;2022-10-01T18:29:05;11.67;;;5.57;;
15183;SDS011;7693;49.266;7.104;2022-10-01T18:31:34;11.87;;;4.70;;
15183;SDS011;7693;49.266;7.104;2022-10-01T18:34:02;12.53;;;4.87;;
15183;SDS011;7693;49.266;7.104;2022-10-01T18:39:32;6.33;;;4.07;;
15183;SDS011;7693;49.266;7.104;2022-10-01T18:42:01;8.50;;;3.27;;
15183;SDS011;7693;49.266;7.104;2022-10-01T18:44:34;12.67;;;3.73;;
15183;SDS011;7693;49.266;7.104;2022-10-01T18:47:18;10.00;;;4.20;;
15183;SDS011;7693;49.266;7.104;2022-10-01T19:32:06;10.67;;;4.50;;
15183;SDS011;7693;49.266;7.104;2022-10-01T19:43:00;11.73;;;5.53;;
15183;SDS011;7693;49.266;7.104;2022-10-01T19:49:03;16.93;;;4.57;;
15183;SDS011;7693;49.266;7.104;2022-10-01T19:52:09;9.30;;;4.40;;
15183;SDS011;7693;49.266;7.104;2022-10-01T19:54:30;11.43;;;4.23;;
15183;SDS011;7693;49.266;7.104;2022-10-01T19:57:15;11.27;;;5.57;;
15183;SDS011;7693;49.266;7.104;2022-10-01T19:59:46;12.17;;;3.80;;
15183;SDS011;7693;49.266;7.104;2022-10-01T20:02:13;11.33;;;4.37;;
15183;SDS011;7693;49.266;7.104;2022-10-01T20:04:48;9.30;;;3.80;;
15183;SDS011;7693;49.266;7.104;2022-10-01T20:24:42;14.43;;;5.67;;
15183;SDS011;7693;49.266;7.104;2022-10-01T20:27:36;13.37;;;4.40;;
15183;SDS011;7693;49.266;7.104;2022-10-01T20:30:14;9.67;;;3.57;;
15183;SDS011;7693;49.266;7.104;2022-10-01T20:35:36;10.27;;;3.73;;
15183;SDS011;7693;49.266;7.104;2022-10-01T20:40:49;11.10;;;3.73;;
15183;SDS011;7693;49.266;7.104;2022-10-01T20:45:55;12.97;;;4.07;;
15183;SDS011;7693;49.266;7.104;2022-10-01T20:48:23;10.53;;;3.97;;
15183;SDS011;7693;49.266;7.104;2022-10-01T20:50:52;11.63;;;3.87;;
15183;SDS011;7693;49.266;7.104;2022-10-01T20:53:25;12.93;;;3.50;;
15183;SDS011;7693;49.266;7.104;2022-10-01T20:55:55;11.33;;;3.83;;
15183;SDS011;7693;49.266;7.104;2022-10-01T20:58:30;11.47;;;4.47;;
15183;SDS011;7693;49.266;7.104;2022-10-01T21:01:03;13.50;;;4.27;;
15183;SDS011;7693;49.266;7.104;2022-10-01T21:03:35;10.43;;;3.87;;
15183;SDS011;7693;49.266;7.104;2022-10-01T21:06:10;12.53;;;3.60;;
15183;SDS011;7693;49.266;7.104;2022-10-01T21:11:45;11.97;;;3.67;;
15183;SDS011;7693;49.266;7.104;2022-10-01T21:14:20;10.00;;;3.80;;
15183;SDS011;7693;49.266;7.104;2022-10-01T21:16:53;11.73;;;3.60;;
15183;SDS011;7693;49.266;7.104;2022-10-01T21:24:59;8.63;;;3.57;;
15183;SDS011;7693;49.266;7.104;2022-10-01T21:36:09;14.53;;;3.50;;
15183;SDS011;7693;49.266;7.104;2022-10-01T21:47:03;9.87;;;3.30;;
15183;SDS011;7693;49.266;7.104;2022-10-01T21:49:46;9.50;;;4.00;;
15183;SDS011;7693;49.266;7.104;2022-10-01T21:52:32;9.97;;;3.57;;
